Aeroporto :
LOGIN :

Iscrizione | Disclaimer

   EN    FR    IT 

 










Sommario :    VFR   VFR Marginale   IFR   IFR Intensivo   IFR Molto Intensivo
Visibilità : 
Base nubi : 
>= 8 km
>= 3000ft
5 / 8 km
1000 / 3000 ft
1500m / 5 km
500 / 1000 ft
800 / 1500m
200 / 500 ft
< 800m
< 200 ft
Simboli :   Temporali  Nebbia  Neve Forte  Precipitazioni Forti  Vento > 20 kt
SIGMETs :   Varie  Temporali  Ghiacco  Turbolenza  Onda orograficha  Ceneri Vulcaniche






- Altitudine del aeroporto : 147 ft
- Codice IATA : DUS


EDDL - Düsseldorf Int.

ULTIMO METAR :
  • 211720Z AUTO 17005KT 140V220 9999 -RA NSC 16/14 Q1006 BECMG 27005KT

METARs OBSOLETI :
  • 211650Z AUTO VRB02KT 9999 -RA NSC 16/14 Q1006 RESHRA BECMG 27005KT
  • 211620Z AUTO 19007KT 9999 SHRA FEW///TCU 16/14 Q1005 RETS BECMG 27005KT NSW
  • 211550Z AUTO 19011KT 9999 TSRA FEW021 SCT042 FEW///CB 16/14 Q1006 BECMG 27005KT NSW
  • 211520Z AUTO VRB01KT 9999 -SHRA VCTS FEW///CB 18/15 Q1005 RESHRA TEMPO 18020G30KT 1500 +TSRA
  • 211450Z AUTO VRB02KT CAVOK 18/15 Q1005 TEMPO FM1530 18020G30KT 2000 +TSRA BKN025CB
  • 211420Z AUTO 31006KT 280V340 9999 FEW047 18/15 Q1005 TEMPO FM1530 18020G30KT 3000 TSRA BKN025CB
  • 211350Z AUTO VRB02KT CAVOK 18/16 Q1006 RESHRA TEMPO 28007KT SHRA BKN025CB
  • 211320Z AUTO 01004KT 260V050 9999 SHRA VCTS FEW///CB 17/15 Q1006 RETS BECMG 30006KT NSW

TAF TAF EDDL
Valido dal 21 a 18 ore il 23 a 00 ore UTC


211700Z 2118/2224 25006KT 9999 SCT008 BKN020
TEMPO 2118/2123 4500 RA BKN008
TEMPO 2123/2208 3000 BR BKN008
PROB30
TEMPO 2123/2206 1200 BCFG BKN003
BECMG 2207/2210 23013KT
PROB30
TEMPO 2211/2216 23015G25KT SHRA BKN040TCU
BECMG 2218/2220 21006KT



MetMap, La meteo Aeronautica in un colpo d'occhio ! - Copyright ORBIFLY Dicembre 2007 - Disclaimer

ORBIFLY MET'MAP TEAM :

Programmazione e sviluppo : Alexandra Zaïnal
Concezione : Baudouin d'Aumeries
Supporto tecnico e logistico : Manuel Goepfert
Aiuto : Marc-Olivier Méhu
Aiuto per la traduzione : Arnaldo La Scala




FONTI E CREDITI :

   NOAA